createdAt,value
2023-05-25T00:02:29.186Z,94.10
2023-05-25T00:07:31.104Z,94.53
2023-05-25T00:12:34.881Z,94.40
2023-05-25T00:17:37.043Z,94.58
2023-05-25T00:22:39.446Z,93.99
2023-05-25T00:27:42.826Z,94.23
2023-05-25T00:32:45.248Z,94.81
2023-05-25T00:37:47.358Z,94.90
2023-05-25T00:42:51.169Z,94.87
2023-05-25T00:47:53.669Z,94.94
2023-05-25T00:52:55.867Z,94.74
2023-05-25T00:58:04.048Z,94.83
2023-05-25T01:03:11.739Z,94.94
2023-05-25T01:08:14.615Z,95.02
2023-05-25T01:13:20.204Z,94.99
2023-05-25T01:18:22.014Z,95.10
2023-05-25T01:23:31.558Z,94.54
2023-05-25T01:28:38.662Z,94.58
2023-05-25T01:33:42.904Z,95.23
2023-05-25T01:38:46.753Z,95.49
2023-05-25T01:43:49.291Z,95.55
2023-05-25T01:49:02.298Z,95.96
2023-05-25T01:54:11.375Z,95.81
2023-05-25T01:59:15.326Z,95.85
2023-05-25T02:04:17.834Z,96.10
2023-05-25T02:09:21.467Z,95.84
2023-05-25T02:14:23.891Z,95.95
2023-05-25T02:19:26.061Z,96.09
2023-05-25T02:24:29.562Z,96.48
2023-05-25T02:29:32.079Z,96.69
2023-05-25T02:34:34.055Z,96.53
2023-05-25T02:39:37.483Z,96.38
2023-05-25T02:44:39.548Z,96.54
2023-05-25T02:49:41.687Z,96.61
2023-05-25T02:54:44.796Z,97.17
2023-05-25T02:59:46.954Z,97.08
2023-05-25T03:04:49.059Z,96.95
2023-05-25T03:09:52.752Z,97.12
2023-05-25T03:14:55.122Z,97.53
2023-05-25T03:19:57.320Z,97.05
2023-05-25T03:25:00.571Z,96.70
2023-05-25T03:30:02.792Z,96.84
2023-05-25T03:35:05.929Z,96.92
2023-05-25T03:40:10.339Z,97.15
2023-05-25T03:45:12.915Z,96.26
2023-05-25T03:50:14.949Z,96.19
2023-05-25T03:55:18.686Z,96.25
2023-05-25T04:00:20.687Z,95.98
2023-05-25T04:05:23.335Z,95.95
2023-05-25T04:10:27.246Z,95.96
2023-05-25T04:15:29.657Z,96.24
2023-05-25T04:20:32.019Z,95.35
2023-05-25T04:25:35.527Z,96.75
2023-05-25T04:30:37.682Z,95.34
2023-05-25T04:35:39.887Z,84.20
2023-05-25T04:40:43.384Z,73.55
2023-05-25T04:45:45.544Z,68.48
2023-05-25T04:50:48.150Z,67.57
2023-05-25T04:55:51.343Z,64.01
2023-05-25T05:00:53.594Z,64.13
2023-05-25T05:05:55.703Z,63.83
2023-05-25T05:10:59.018Z,63.01
2023-05-25T05:16:01.419Z,61.57
2023-05-25T05:21:03.670Z,57.82
2023-05-25T05:26:07.217Z,53.48
2023-05-25T05:31:09.241Z,51.92
2023-05-25T05:36:11.491Z,58.64
2023-05-25T05:41:14.650Z,59.23
2023-05-25T05:46:16.905Z,55.86
2023-05-25T05:51:18.768Z,56.86
2023-05-25T05:56:22.419Z,62.29
2023-05-25T06:01:24.592Z,56.65
2023-05-25T06:06:26.511Z,55.06
2023-05-25T06:11:30.136Z,58.34
2023-05-25T06:16:32.274Z,57.63
2023-05-25T06:21:34.115Z,58.32
2023-05-25T06:26:37.241Z,55.04
2023-05-25T06:31:39.325Z,56.44
2023-05-25T06:36:41.725Z,54.10
2023-05-25T06:41:45.079Z,55.93
2023-05-25T06:46:47.205Z,58.58
2023-05-25T06:51:49.123Z,64.69
2023-05-25T06:56:52.777Z,59.86
2023-05-25T07:01:54.659Z,51.68
2023-05-25T07:06:56.420Z,45.54
2023-05-25T07:11:59.552Z,46.19
2023-05-25T07:17:01.517Z,44.46
2023-05-25T07:22:03.686Z,41.11
2023-05-25T07:27:07.403Z,48.46
2023-05-25T07:32:09.126Z,48.44
2023-05-25T07:37:11.136Z,46.59
2023-05-25T07:42:14.517Z,42.04
2023-05-25T07:47:16.679Z,46.00
2023-05-25T07:52:19.356Z,43.19
2023-05-25T07:57:22.832Z,46.28
2023-05-25T08:02:25.037Z,46.25
2023-05-25T08:07:27.246Z,50.63
2023-05-25T08:12:47.087Z,44.36
2023-05-25T08:17:51.425Z,51.04
2023-05-25T08:22:53.482Z,51.24
2023-05-25T08:27:56.680Z,43.73
2023-05-25T08:32:58.672Z,40.30
2023-05-25T08:38:00.709Z,43.21
2023-05-25T08:43:04.033Z,46.61
2023-05-25T08:48:12.026Z,46.78
2023-05-25T08:53:18.663Z,40.05
2023-05-25T08:58:28.617Z,35.23
2023-05-25T09:03:31.167Z,35.62
2023-05-25T09:08:33.185Z,43.47
2023-05-25T09:13:37.000Z,43.89
2023-05-25T09:18:39.839Z,42.11
2023-05-25T09:23:42.659Z,43.94
2023-05-25T09:28:49.031Z,53.66
2023-05-25T09:33:51.682Z,49.49
2023-05-25T09:38:54.599Z,45.74
2023-05-25T09:44:10.488Z,42.69
2023-05-25T09:49:14.022Z,42.55
2023-05-25T09:54:16.455Z,38.01
2023-05-25T09:59:20.129Z,37.28
2023-05-25T10:04:22.292Z,41.69
2023-05-25T10:09:28.998Z,43.48
2023-05-25T10:14:36.045Z,39.16
2023-05-25T10:19:42.327Z,37.85
2023-05-25T10:24:53.963Z,37.75
2023-05-25T10:30:01.127Z,43.00
2023-05-25T10:35:05.242Z,43.26
2023-05-25T10:40:07.753Z,43.30
2023-05-25T10:45:12.147Z,44.04
2023-05-25T10:50:21.557Z,48.97
2023-05-25T10:55:23.821Z,47.68
2023-05-25T11:00:31.437Z,45.50
2023-05-25T11:05:35.482Z,43.88
2023-05-25T11:10:53.285Z,45.18
2023-05-25T11:16:17.556Z,46.28
2023-05-25T11:21:42.631Z,44.70
2023-05-25T11:26:56.848Z,46.65
2023-05-25T11:32:00.365Z,45.71
2023-05-25T11:37:02.542Z,44.92
2023-05-25T11:42:06.041Z,48.85
2023-05-25T11:47:11.833Z,50.95
2023-05-25T11:52:15.511Z,49.43
2023-05-25T11:57:19.178Z,48.74
2023-05-25T12:02:23.256Z,48.16
2023-05-25T12:07:25.907Z,47.73
2023-05-25T12:12:27.629Z,47.83
2023-05-25T12:17:31.312Z,47.83
2023-05-25T12:22:34.068Z,47.85
2023-05-25T12:27:36.835Z,50.30
2023-05-25T12:33:01.993Z,55.68
2023-05-25T12:38:11.661Z,52.87
2023-05-25T12:43:14.840Z,53.96
2023-05-25T12:48:26.198Z,49.04
2023-05-25T12:53:28.397Z,48.98
2023-05-25T12:58:30.574Z,50.10
2023-05-25T13:03:34.853Z,51.21
2023-05-25T13:08:36.607Z,51.00
2023-05-25T13:13:38.626Z,51.36
2023-05-25T13:18:42.071Z,52.42
2023-05-25T13:23:44.964Z,50.99
2023-05-25T13:28:47.244Z,50.42
2023-05-25T13:33:50.347Z,48.94
2023-05-25T13:38:52.247Z,51.78
2023-05-25T13:43:54.399Z,50.56
2023-05-25T13:48:57.898Z,52.40
2023-05-25T13:53:59.599Z,51.53
2023-05-25T13:59:01.678Z,49.73
2023-05-25T14:04:05.358Z,49.85
2023-05-25T14:09:07.550Z,51.17
2023-05-25T14:14:23.261Z,53.17
2023-05-25T14:19:33.999Z,49.75
2023-05-25T14:24:36.623Z,48.31
2023-05-25T14:29:38.898Z,48.85
2023-05-25T14:34:42.407Z,48.10
2023-05-25T14:39:44.595Z,46.93
2023-05-25T14:44:46.579Z,48.32
2023-05-25T14:49:50.107Z,47.67
2023-05-25T14:54:52.335Z,48.17
2023-05-25T14:59:54.217Z,48.12
2023-05-25T15:04:57.592Z,46.29
2023-05-25T15:09:59.355Z,47.65
2023-05-25T15:15:01.546Z,46.36
2023-05-25T15:20:06.418Z,48.22
2023-05-25T15:25:09.273Z,45.86
2023-05-25T15:30:11.994Z,44.47
2023-05-25T15:35:15.446Z,45.57
2023-05-25T15:40:17.541Z,47.72
2023-05-25T15:45:19.862Z,49.45
2023-05-25T15:50:23.444Z,51.39
2023-05-25T15:55:25.556Z,51.30
2023-05-25T16:00:27.748Z,52.71
2023-05-25T16:05:31.506Z,54.16
2023-05-25T16:10:33.290Z,51.60
2023-05-25T16:15:35.129Z,50.38
2023-05-25T16:20:38.791Z,50.76
2023-05-25T16:25:41.347Z,52.11
2023-05-25T16:30:43.644Z,53.37
2023-05-25T16:35:47.563Z,52.30
2023-05-25T16:40:50.207Z,51.60
2023-05-25T16:45:52.696Z,50.72
2023-05-25T16:50:57.020Z,51.80
2023-05-25T16:55:58.954Z,52.82
2023-05-25T17:01:01.078Z,53.07
2023-05-25T17:06:04.590Z,53.27
2023-05-25T17:11:06.663Z,52.78
2023-05-25T17:16:09.115Z,53.78
2023-05-25T17:21:12.617Z,51.55
2023-05-25T17:26:14.989Z,52.81
2023-05-25T17:31:16.826Z,53.78
2023-05-25T17:36:20.038Z,53.57
2023-05-25T17:41:22.267Z,54.17
2023-05-25T17:46:24.073Z,54.08
2023-05-25T17:51:27.736Z,54.41
2023-05-25T17:56:30.021Z,52.27
2023-05-25T18:01:32.507Z,54.05
2023-05-25T18:06:36.441Z,53.34
2023-05-25T18:11:38.463Z,53.75
2023-05-25T18:16:40.574Z,53.99
2023-05-25T18:21:44.208Z,55.08
2023-05-25T18:26:46.855Z,55.44
2023-05-25T18:31:48.776Z,56.07
2023-05-25T18:36:52.600Z,57.27
2023-05-25T18:41:54.558Z,57.86
2023-05-25T18:46:56.861Z,59.27
2023-05-25T18:52:00.166Z,60.15
2023-05-25T18:57:02.113Z,61.08
2023-05-25T19:02:04.358Z,62.71
2023-05-25T19:07:07.786Z,62.80
2023-05-25T19:12:09.766Z,63.61
2023-05-25T19:17:11.633Z,64.19
2023-05-25T19:22:15.137Z,65.17
2023-05-25T19:27:17.568Z,66.34
2023-05-25T19:32:19.423Z,67.33
2023-05-25T19:37:22.753Z,68.40
2023-05-25T19:42:24.561Z,70.19
2023-05-25T19:47:26.328Z,69.85
2023-05-25T19:52:30.032Z,71.08
2023-05-25T19:57:32.121Z,71.77
2023-05-25T20:02:34.300Z,72.61
2023-05-25T20:07:37.517Z,72.51
2023-05-25T20:12:39.427Z,74.05
2023-05-25T20:17:41.237Z,73.81
2023-05-25T20:22:44.606Z,74.66
2023-05-25T20:27:47.019Z,76.08
2023-05-25T20:32:48.940Z,77.13
2023-05-25T20:37:52.319Z,78.27
2023-05-25T20:42:54.068Z,78.96
2023-05-25T20:47:59.492Z,79.53
2023-05-25T20:53:03.264Z,80.40
2023-05-25T20:58:05.002Z,81.21
2023-05-25T21:03:06.815Z,81.66
2023-05-25T21:08:10.031Z,82.45
2023-05-25T21:13:12.715Z,82.25
2023-05-25T21:18:14.497Z,83.05
2023-05-25T21:23:17.955Z,83.81
2023-05-25T21:28:19.910Z,84.40
2023-05-25T21:33:22.124Z,84.31
2023-05-25T21:38:25.560Z,84.88
2023-05-25T21:43:27.353Z,85.84
2023-05-25T21:48:29.081Z,86.91
2023-05-25T21:53:32.448Z,87.23
2023-05-25T21:58:34.212Z,88.73
2023-05-25T22:03:36.021Z,89.04
2023-05-25T22:08:39.544Z,86.74
2023-05-25T22:13:41.656Z,86.36
2023-05-25T22:18:43.561Z,86.22
2023-05-25T22:23:47.359Z,85.37
2023-05-25T22:28:50.003Z,85.44
2023-05-25T22:33:52.110Z,85.78
2023-05-25T22:38:55.598Z,86.26
2023-05-25T22:43:57.893Z,86.99
2023-05-25T22:49:00.145Z,87.72
2023-05-25T22:54:03.926Z,88.63
2023-05-25T22:59:06.162Z,88.71
2023-05-25T23:04:08.393Z,88.89
2023-05-25T23:09:12.085Z,88.23
2023-05-25T23:14:14.246Z,84.39
2023-05-25T23:19:16.462Z,81.60
2023-05-25T23:24:19.961Z,80.95
2023-05-25T23:29:22.711Z,81.68
2023-05-25T23:34:25.585Z,83.20
2023-05-25T23:39:29.151Z,83.50
2023-05-25T23:44:31.512Z,84.39
2023-05-25T23:49:33.653Z,82.24
2023-05-25T23:54:37.486Z,82.22
2023-05-25T23:59:39.637Z,81.52
